sensor_id;sensor_type;location;lat;lon;timestamp;temperature;humidity
24452;DHT22;13350;50.984;5.822;2024-02-21T00:02:23;9.10;99.90
24452;DHT22;13350;50.984;5.822;2024-02-21T00:04:50;9.10;99.90
24452;DHT22;13350;50.984;5.822;2024-02-21T00:07:17;9.10;99.90
24452;DHT22;13350;50.984;5.822;2024-02-21T00:09:44;9.20;99.90
24452;DHT22;13350;50.984;5.822;2024-02-21T00:12:11;9.20;99.90
24452;DHT22;13350;50.984;5.822;2024-02-21T00:14:39;9.10;99.90
24452;DHT22;13350;50.984;5.822;2024-02-21T00:17:07;9.10;99.90
24452;DHT22;13350;50.984;5.822;2024-02-21T00:19:36;9.10;99.90
24452;DHT22;13350;50.984;5.822;2024-02-21T00:22:03;9.10;99.90
24452;DHT22;13350;50.984;5.822;2024-02-21T00:24:30;9.10;99.90
24452;DHT22;13350;50.984;5.822;2024-02-21T00:26:58;9.10;99.90
24452;DHT22;13350;50.984;5.822;2024-02-21T00:29:25;9.10;99.90
24452;DHT22;13350;50.984;5.822;2024-02-21T00:31:52;9.00;99.90
24452;DHT22;13350;50.984;5.822;2024-02-21T00:34:19;9.10;99.90
24452;DHT22;13350;50.984;5.822;2024-02-21T00:36:48;9.00;99.90
24452;DHT22;13350;50.984;5.822;2024-02-21T00:39:16;9.00;99.90
24452;DHT22;13350;50.984;5.822;2024-02-21T00:41:43;9.00;99.90
24452;DHT22;13350;50.984;5.822;2024-02-21T00:44:10;9.10;99.90
24452;DHT22;13350;50.984;5.822;2024-02-21T00:46:37;9.10;99.90
24452;DHT22;13350;50.984;5.822;2024-02-21T00:49:05;9.10;99.90
24452;DHT22;13350;50.984;5.822;2024-02-21T00:51:32;9.10;99.90
24452;DHT22;13350;50.984;5.822;2024-02-21T00:54:00;9.00;99.90
24452;DHT22;13350;50.984;5.822;2024-02-21T00:56:28;9.10;99.90
24452;DHT22;13350;50.984;5.822;2024-02-21T00:58:55;9.10;99.90
24452;DHT22;13350;50.984;5.822;2024-02-21T01:01:22;9.10;99.90
24452;DHT22;13350;50.984;5.822;2024-02-21T01:03:49;9.10;99.90
24452;DHT22;13350;50.984;5.822;2024-02-21T01:06:16;9.00;99.90
24452;DHT22;13350;50.984;5.822;2024-02-21T01:08:43;9.00;99.90
24452;DHT22;13350;50.984;5.822;2024-02-21T01:11:12;9.00;99.90
24452;DHT22;13350;50.984;5.822;2024-02-21T01:13:39;9.00;99.90
24452;DHT22;13350;50.984;5.822;2024-02-21T01:16:06;9.00;99.90
24452;DHT22;13350;50.984;5.822;2024-02-21T01:18:33;9.00;99.90
24452;DHT22;13350;50.984;5.822;2024-02-21T01:21:00;9.00;99.90
24452;DHT22;13350;50.984;5.822;2024-02-21T01:23:27;9.00;99.90
24452;DHT22;13350;50.984;5.822;2024-02-21T01:25:54;9.00;99.90
24452;DHT22;13350;50.984;5.822;2024-02-21T01:28:23;9.00;99.90
24452;DHT22;13350;50.984;5.822;2024-02-21T01:30:50;9.10;99.90
24452;DHT22;13350;50.984;5.822;2024-02-21T01:33:17;9.00;99.90
24452;DHT22;13350;50.984;5.822;2024-02-21T01:35:44;9.00;99.90
24452;DHT22;13350;50.984;5.822;2024-02-21T01:38:12;9.00;99.90
24452;DHT22;13350;50.984;5.822;2024-02-21T01:40:39;8.90;99.90
24452;DHT22;13350;50.984;5.822;2024-02-21T01:43:15;8.90;99.90
24452;DHT22;13350;50.984;5.822;2024-02-21T01:45:43;8.90;99.90
24452;DHT22;13350;50.984;5.822;2024-02-21T01:48:11;8.90;99.90
24452;DHT22;13350;50.984;5.822;2024-02-21T01:50:38;8.80;99.90
24452;DHT22;13350;50.984;5.822;2024-02-21T01:53:05;8.80;99.90
24452;DHT22;13350;50.984;5.822;2024-02-21T01:55:33;8.90;99.90
24452;DHT22;13350;50.984;5.822;2024-02-21T01:58:00;8.90;99.90
24452;DHT22;13350;50.984;5.822;2024-02-21T02:00:28;8.90;99.90
24452;DHT22;13350;50.984;5.822;2024-02-21T02:02:56;9.00;99.90
24452;DHT22;13350;50.984;5.822;2024-02-21T02:05:23;8.90;99.90
24452;DHT22;13350;50.984;5.822;2024-02-21T02:07:50;9.00;99.90
24452;DHT22;13350;50.984;5.822;2024-02-21T02:10:17;8.90;99.90
24452;DHT22;13350;50.984;5.822;2024-02-21T02:12:44;9.00;99.90
24452;DHT22;13350;50.984;5.822;2024-02-21T02:15:11;9.00;99.90
24452;DHT22;13350;50.984;5.822;2024-02-21T02:17:38;9.10;99.90
24452;DHT22;13350;50.984;5.822;2024-02-21T02:20:07;9.00;99.90
24452;DHT22;13350;50.984;5.822;2024-02-21T02:22:35;9.00;99.90
24452;DHT22;13350;50.984;5.822;2024-02-21T02:25:05;8.90;99.90
24452;DHT22;13350;50.984;5.822;2024-02-21T02:27:32;8.90;99.90
24452;DHT22;13350;50.984;5.822;2024-02-21T02:29:59;8.90;99.90
24452;DHT22;13350;50.984;5.822;2024-02-21T02:32:26;8.90;99.90
24452;DHT22;13350;50.984;5.822;2024-02-21T02:34:53;9.00;99.90
24452;DHT22;13350;50.984;5.822;2024-02-21T02:37:21;9.00;99.90
24452;DHT22;13350;50.984;5.822;2024-02-21T02:39:48;9.00;99.90
24452;DHT22;13350;50.984;5.822;2024-02-21T02:42:16;9.00;99.90
24452;DHT22;13350;50.984;5.822;2024-02-21T02:44:43;8.90;99.90
24452;DHT22;13350;50.984;5.822;2024-02-21T02:47:10;8.90;99.90
24452;DHT22;13350;50.984;5.822;2024-02-21T02:49:37;8.90;99.90
24452;DHT22;13350;50.984;5.822;2024-02-21T02:52:05;8.90;99.90
24452;DHT22;13350;50.984;5.822;2024-02-21T02:54:31;8.90;99.90
24452;DHT22;13350;50.984;5.822;2024-02-21T02:56:58;8.90;99.90
24452;DHT22;13350;50.984;5.822;2024-02-21T02:59:27;8.90;99.90
24452;DHT22;13350;50.984;5.822;2024-02-21T03:01:54;8.90;99.90
24452;DHT22;13350;50.984;5.822;2024-02-21T03:04:21;8.80;99.90
24452;DHT22;13350;50.984;5.822;2024-02-21T03:06:48;8.80;99.90
24452;DHT22;13350;50.984;5.822;2024-02-21T03:09:16;8.80;99.90
24452;DHT22;13350;50.984;5.822;2024-02-21T03:11:43;8.80;99.90
24452;DHT22;13350;50.984;5.822;2024-02-21T03:14:10;8.80;99.90
24452;DHT22;13350;50.984;5.822;2024-02-21T03:16:39;8.90;99.90
24452;DHT22;13350;50.984;5.822;2024-02-21T03:19:06;8.80;99.90
24452;DHT22;13350;50.984;5.822;2024-02-21T03:21:33;8.80;99.90
24452;DHT22;13350;50.984;5.822;2024-02-21T03:24:00;8.80;99.90
24452;DHT22;13350;50.984;5.822;2024-02-21T03:26:27;8.80;99.90
24452;DHT22;13350;50.984;5.822;2024-02-21T03:28:54;8.80;99.90
24452;DHT22;13350;50.984;5.822;2024-02-21T03:31:21;8.80;99.90
24452;DHT22;13350;50.984;5.822;2024-02-21T03:33:49;8.80;99.90
24452;DHT22;13350;50.984;5.822;2024-02-21T03:36:16;8.80;99.90
24452;DHT22;13350;50.984;5.822;2024-02-21T03:38:43;8.80;99.90
24452;DHT22;13350;50.984;5.822;2024-02-21T03:41:10;8.80;99.90
24452;DHT22;13350;50.984;5.822;2024-02-21T03:43:37;8.70;99.90
24452;DHT22;13350;50.984;5.822;2024-02-21T03:46:04;8.70;99.90
24452;DHT22;13350;50.984;5.822;2024-02-21T03:48:31;8.70;99.90
24452;DHT22;13350;50.984;5.822;2024-02-21T03:51:00;8.70;99.90
24452;DHT22;13350;50.984;5.822;2024-02-21T03:53:27;8.80;99.90
24452;DHT22;13350;50.984;5.822;2024-02-21T03:55:54;8.80;99.90
24452;DHT22;13350;50.984;5.822;2024-02-21T03:58:21;8.80;99.90
24452;DHT22;13350;50.984;5.822;2024-02-21T04:00:48;8.70;99.90
24452;DHT22;13350;50.984;5.822;2024-02-21T04:03:15;8.70;99.90
24452;DHT22;13350;50.984;5.822;2024-02-21T04:05:42;8.80;99.90
24452;DHT22;13350;50.984;5.822;2024-02-21T04:08:11;8.80;99.90
24452;DHT22;13350;50.984;5.822;2024-02-21T04:10:38;8.70;99.90
24452;DHT22;13350;50.984;5.822;2024-02-21T04:13:06;8.70;99.90
24452;DHT22;13350;50.984;5.822;2024-02-21T04:15:33;8.80;99.90
24452;DHT22;13350;50.984;5.822;2024-02-21T04:18:00;8.80;99.90
24452;DHT22;13350;50.984;5.822;2024-02-21T04:20:28;8.80;99.90
24452;DHT22;13350;50.984;5.822;2024-02-21T04:22:55;8.80;99.90
24452;DHT22;13350;50.984;5.822;2024-02-21T04:25:24;8.80;99.90
24452;DHT22;13350;50.984;5.822;2024-02-21T04:27:51;8.80;99.90
24452;DHT22;13350;50.984;5.822;2024-02-21T04:30:18;8.80;99.90
24452;DHT22;13350;50.984;5.822;2024-02-21T04:32:45;8.80;99.90
24452;DHT22;13350;50.984;5.822;2024-02-21T04:35:12;8.80;99.90
24452;DHT22;13350;50.984;5.822;2024-02-21T04:37:39;8.80;99.90
24452;DHT22;13350;50.984;5.822;2024-02-21T04:40:07;8.80;99.90
24452;DHT22;13350;50.984;5.822;2024-02-21T04:42:36;8.80;99.90
24452;DHT22;13350;50.984;5.822;2024-02-21T04:45:03;8.70;99.90
24452;DHT22;13350;50.984;5.822;2024-02-21T04:47:30;8.70;99.90
24452;DHT22;13350;50.984;5.822;2024-02-21T04:49:57;8.70;99.90
24452;DHT22;13350;50.984;5.822;2024-02-21T04:52:24;8.70;99.90
24452;DHT22;13350;50.984;5.822;2024-02-21T04:54:51;8.70;99.90
24452;DHT22;13350;50.984;5.822;2024-02-21T04:57:18;8.70;99.90
24452;DHT22;13350;50.984;5.822;2024-02-21T04:59:47;8.70;99.90
24452;DHT22;13350;50.984;5.822;2024-02-21T05:02:14;8.70;99.90
24452;DHT22;13350;50.984;5.822;2024-02-21T05:04:42;8.70;99.90
24452;DHT22;13350;50.984;5.822;2024-02-21T05:07:09;8.70;99.90
24452;DHT22;13350;50.984;5.822;2024-02-21T05:09:37;8.70;99.90
24452;DHT22;13350;50.984;5.822;2024-02-21T05:12:04;8.70;99.90
24452;DHT22;13350;50.984;5.822;2024-02-21T05:14:31;8.70;99.90
24452;DHT22;13350;50.984;5.822;2024-02-21T05:16:59;8.70;99.90
24452;DHT22;13350;50.984;5.822;2024-02-21T05:19:26;8.70;99.90
24452;DHT22;13350;50.984;5.822;2024-02-21T05:21:53;8.70;99.90
24452;DHT22;13350;50.984;5.822;2024-02-21T05:24:20;8.70;99.90
24452;DHT22;13350;50.984;5.822;2024-02-21T05:26:47;8.70;99.90
24452;DHT22;13350;50.984;5.822;2024-02-21T05:29:14;8.70;99.90
24452;DHT22;13350;50.984;5.822;2024-02-21T05:31:55;8.70;99.90
24452;DHT22;13350;50.984;5.822;2024-02-21T05:34:23;8.70;99.90
24452;DHT22;13350;50.984;5.822;2024-02-21T05:36:50;8.70;99.90
24452;DHT22;13350;50.984;5.822;2024-02-21T05:39:17;8.70;99.90
24452;DHT22;13350;50.984;5.822;2024-02-21T05:41:45;8.60;99.90
24452;DHT22;13350;50.984;5.822;2024-02-21T05:44:11;8.60;99.90
24452;DHT22;13350;50.984;5.822;2024-02-21T05:46:39;8.70;99.90
24452;DHT22;13350;50.984;5.822;2024-02-21T05:49:06;8.70;99.90
24452;DHT22;13350;50.984;5.822;2024-02-21T05:51:35;8.70;99.90
24452;DHT22;13350;50.984;5.822;2024-02-21T05:54:02;8.60;99.90
24452;DHT22;13350;50.984;5.822;2024-02-21T05:56:29;8.60;99.90
24452;DHT22;13350;50.984;5.822;2024-02-21T05:58:56;8.60;99.90
24452;DHT22;13350;50.984;5.822;2024-02-21T06:01:23;8.60;99.90
24452;DHT22;13350;50.984;5.822;2024-02-21T06:03:50;8.60;99.90
24452;DHT22;13350;50.984;5.822;2024-02-21T06:06:17;8.60;99.90
24452;DHT22;13350;50.984;5.822;2024-02-21T06:08:45;8.60;99.90
24452;DHT22;13350;50.984;5.822;2024-02-21T06:11:12;8.60;99.90
24452;DHT22;13350;50.984;5.822;2024-02-21T06:13:40;8.50;99.90
24452;DHT22;13350;50.984;5.822;2024-02-21T06:16:07;8.50;99.90
24452;DHT22;13350;50.984;5.822;2024-02-21T06:18:35;8.40;99.90
24452;DHT22;13350;50.984;5.822;2024-02-21T06:21:02;8.50;99.90
24452;DHT22;13350;50.984;5.822;2024-02-21T06:23:29;8.40;99.90
24452;DHT22;13350;50.984;5.822;2024-02-21T06:25:57;8.50;99.90
24452;DHT22;13350;50.984;5.822;2024-02-21T06:28:24;8.50;99.90
24452;DHT22;13350;50.984;5.822;2024-02-21T06:30:51;8.50;99.90
24452;DHT22;13350;50.984;5.822;2024-02-21T06:33:18;8.50;99.90
24452;DHT22;13350;50.984;5.822;2024-02-21T06:35:50;8.50;99.90
24452;DHT22;13350;50.984;5.822;2024-02-21T06:38:18;8.50;99.90
24452;DHT22;13350;50.984;5.822;2024-02-21T06:40:45;8.50;99.90
24452;DHT22;13350;50.984;5.822;2024-02-21T06:43:18;8.40;99.90
24452;DHT22;13350;50.984;5.822;2024-02-21T06:45:45;8.40;99.90
24452;DHT22;13350;50.984;5.822;2024-02-21T06:48:16;8.50;99.90
24452;DHT22;13350;50.984;5.822;2024-02-21T06:50:44;8.50;99.90
24452;DHT22;13350;50.984;5.822;2024-02-21T06:53:11;8.60;99.90
24452;DHT22;13350;50.984;5.822;2024-02-21T06:55:38;8.60;99.90
24452;DHT22;13350;50.984;5.822;2024-02-21T06:58:05;8.60;99.90
24452;DHT22;13350;50.984;5.822;2024-02-21T07:00:35;8.60;99.90
24452;DHT22;13350;50.984;5.822;2024-02-21T07:03:02;8.50;99.90
24452;DHT22;13350;50.984;5.822;2024-02-21T07:05:29;8.60;99.90
24452;DHT22;13350;50.984;5.822;2024-02-21T07:07:56;8.50;99.90
24452;DHT22;13350;50.984;5.822;2024-02-21T07:10:23;8.50;99.90
24452;DHT22;13350;50.984;5.822;2024-02-21T07:12:50;8.50;99.90
24452;DHT22;13350;50.984;5.822;2024-02-21T07:15:18;8.50;99.90
24452;DHT22;13350;50.984;5.822;2024-02-21T07:17:47;8.60;99.90
24452;DHT22;13350;50.984;5.822;2024-02-21T07:20:13;8.50;99.90
24452;DHT22;13350;50.984;5.822;2024-02-21T07:22:40;8.50;99.90
24452;DHT22;13350;50.984;5.822;2024-02-21T07:25:08;8.50;99.90
24452;DHT22;13350;50.984;5.822;2024-02-21T07:27:35;8.50;99.90
24452;DHT22;13350;50.984;5.822;2024-02-21T07:30:03;8.40;99.90
24452;DHT22;13350;50.984;5.822;2024-02-21T07:32:30;8.50;99.90
24452;DHT22;13350;50.984;5.822;2024-02-21T07:34:58;8.50;99.90
24452;DHT22;13350;50.984;5.822;2024-02-21T07:37:25;8.40;99.90
24452;DHT22;13350;50.984;5.822;2024-02-21T07:39:53;8.50;99.90
24452;DHT22;13350;50.984;5.822;2024-02-21T07:42:19;8.50;99.90
24452;DHT22;13350;50.984;5.822;2024-02-21T07:44:46;8.50;99.90
24452;DHT22;13350;50.984;5.822;2024-02-21T07:47:13;8.50;99.90
24452;DHT22;13350;50.984;5.822;2024-02-21T07:49:41;8.50;99.90
24452;DHT22;13350;50.984;5.822;2024-02-21T07:52:09;8.50;99.90
24452;DHT22;13350;50.984;5.822;2024-02-21T07:54:36;8.50;99.90
24452;DHT22;13350;50.984;5.822;2024-02-21T07:57:04;8.60;99.90
24452;DHT22;13350;50.984;5.822;2024-02-21T07:59:31;8.50;99.90
24452;DHT22;13350;50.984;5.822;2024-02-21T08:01:58;8.50;99.90
24452;DHT22;13350;50.984;5.822;2024-02-21T08:04:25;8.50;99.90
24452;DHT22;13350;50.984;5.822;2024-02-21T08:06:52;8.50;99.90
24452;DHT22;13350;50.984;5.822;2024-02-21T08:09:22;8.50;99.90
24452;DHT22;13350;50.984;5.822;2024-02-21T08:11:49;8.60;99.90
24452;DHT22;13350;50.984;5.822;2024-02-21T08:14:17;8.60;99.90
24452;DHT22;13350;50.984;5.822;2024-02-21T08:16:44;8.60;99.90
24452;DHT22;13350;50.984;5.822;2024-02-21T08:19:11;8.60;99.90
24452;DHT22;13350;50.984;5.822;2024-02-21T08:21:38;8.70;99.90
24452;DHT22;13350;50.984;5.822;2024-02-21T08:24:05;8.70;99.90
24452;DHT22;13350;50.984;5.822;2024-02-21T08:26:33;8.60;99.90
24452;DHT22;13350;50.984;5.822;2024-02-21T08:29:01;8.70;99.90
24452;DHT22;13350;50.984;5.822;2024-02-21T08:31:28;8.70;99.90
24452;DHT22;13350;50.984;5.822;2024-02-21T08:33:57;8.70;99.90
24452;DHT22;13350;50.984;5.822;2024-02-21T08:36:28;8.70;99.90
24452;DHT22;13350;50.984;5.822;2024-02-21T08:38:56;8.70;99.90
24452;DHT22;13350;50.984;5.822;2024-02-21T08:41:23;8.70;99.90
24452;DHT22;13350;50.984;5.822;2024-02-21T08:43:51;8.80;99.90
24452;DHT22;13350;50.984;5.822;2024-02-21T08:46:19;8.80;99.90
24452;DHT22;13350;50.984;5.822;2024-02-21T08:48:46;8.70;99.90
24452;DHT22;13350;50.984;5.822;2024-02-21T08:51:13;8.80;99.90
24452;DHT22;13350;50.984;5.822;2024-02-21T08:53:40;8.80;99.90
24452;DHT22;13350;50.984;5.822;2024-02-21T08:56:07;8.80;99.90
24452;DHT22;13350;50.984;5.822;2024-02-21T08:58:34;8.90;99.90
24452;DHT22;13350;50.984;5.822;2024-02-21T09:01:03;8.90;99.90
24452;DHT22;13350;50.984;5.822;2024-02-21T09:03:31;9.10;99.90
24452;DHT22;13350;50.984;5.822;2024-02-21T09:05:58;9.20;99.90
24452;DHT22;13350;50.984;5.822;2024-02-21T09:08:25;9.10;99.90
24452;DHT22;13350;50.984;5.822;2024-02-21T09:10:52;9.10;99.90
24452;DHT22;13350;50.984;5.822;2024-02-21T09:13:19;9.10;99.90
24452;DHT22;13350;50.984;5.822;2024-02-21T09:15:47;9.20;99.90
24452;DHT22;13350;50.984;5.822;2024-02-21T09:18:15;9.30;99.90
24452;DHT22;13350;50.984;5.822;2024-02-21T09:20:43;9.20;99.90
24452;DHT22;13350;50.984;5.822;2024-02-21T09:23:10;9.30;99.90
24452;DHT22;13350;50.984;5.822;2024-02-21T09:25:37;9.30;99.90
24452;DHT22;13350;50.984;5.822;2024-02-21T09:28:04;9.40;99.90
24452;DHT22;13350;50.984;5.822;2024-02-21T09:30:31;9.30;99.90
24452;DHT22;13350;50.984;5.822;2024-02-21T09:32:59;9.40;99.90
24452;DHT22;13350;50.984;5.822;2024-02-21T09:35:28;9.40;99.90
24452;DHT22;13350;50.984;5.822;2024-02-21T09:37:55;9.50;99.90
24452;DHT22;13350;50.984;5.822;2024-02-21T09:40:22;9.40;99.90
24452;DHT22;13350;50.984;5.822;2024-02-21T09:42:50;9.50;99.90
24452;DHT22;13350;50.984;5.822;2024-02-21T09:45:23;9.60;99.90
24452;DHT22;13350;50.984;5.822;2024-02-21T09:47:55;9.60;99.90
24452;DHT22;13350;50.984;5.822;2024-02-21T09:50:30;9.50;99.90
24452;DHT22;13350;50.984;5.822;2024-02-21T09:52:58;9.60;99.90
24452;DHT22;13350;50.984;5.822;2024-02-21T09:55:27;9.60;99.90
24452;DHT22;13350;50.984;5.822;2024-02-21T09:57:55;9.60;99.90
24452;DHT22;13350;50.984;5.822;2024-02-21T10:00:24;9.60;99.90
24452;DHT22;13350;50.984;5.822;2024-02-21T10:02:51;9.80;99.90
24452;DHT22;13350;50.984;5.822;2024-02-21T10:05:18;9.80;99.90
24452;DHT22;13350;50.984;5.822;2024-02-21T10:07:46;9.80;99.90
24452;DHT22;13350;50.984;5.822;2024-02-21T10:10:15;9.70;99.90
24452;DHT22;13350;50.984;5.822;2024-02-21T10:12:47;9.80;99.90
24452;DHT22;13350;50.984;5.822;2024-02-21T10:15:19;9.80;99.90
24452;DHT22;13350;50.984;5.822;2024-02-21T10:17:46;9.80;99.90
24452;DHT22;13350;50.984;5.822;2024-02-21T10:20:13;10.00;99.90
24452;DHT22;13350;50.984;5.822;2024-02-21T10:22:41;10.10;99.90
24452;DHT22;13350;50.984;5.822;2024-02-21T10:25:10;10.20;99.90
24452;DHT22;13350;50.984;5.822;2024-02-21T10:27:37;10.20;99.90
24452;DHT22;13350;50.984;5.822;2024-02-21T10:30:07;10.20;99.90
24452;DHT22;13350;50.984;5.822;2024-02-21T10:32:35;10.30;99.90
24452;DHT22;13350;50.984;5.822;2024-02-21T10:35:02;10.30;99.90
24452;DHT22;13350;50.984;5.822;2024-02-21T10:37:30;10.40;99.90
24452;DHT22;13350;50.984;5.822;2024-02-21T10:39:57;10.30;99.90
24452;DHT22;13350;50.984;5.822;2024-02-21T10:42:27;10.50;99.90
24452;DHT22;13350;50.984;5.822;2024-02-21T10:44:55;10.70;99.90
24452;DHT22;13350;50.984;5.822;2024-02-21T10:47:25;10.60;99.90
24452;DHT22;13350;50.984;5.822;2024-02-21T10:50:03;10.60;99.90
24452;DHT22;13350;50.984;5.822;2024-02-21T10:52:32;10.70;99.90
24452;DHT22;13350;50.984;5.822;2024-02-21T10:55:07;10.50;99.90
24452;DHT22;13350;50.984;5.822;2024-02-21T10:57:38;10.60;99.90
24452;DHT22;13350;50.984;5.822;2024-02-21T11:00:05;10.80;99.90
24452;DHT22;13350;50.984;5.822;2024-02-21T11:02:35;11.00;99.90
24452;DHT22;13350;50.984;5.822;2024-02-21T11:05:03;10.90;99.90
24452;DHT22;13350;50.984;5.822;2024-02-21T11:07:30;10.90;99.90
24452;DHT22;13350;50.984;5.822;2024-02-21T11:09:58;10.80;99.90
24452;DHT22;13350;50.984;5.822;2024-02-21T11:12:25;10.90;99.90
24452;DHT22;13350;50.984;5.822;2024-02-21T11:15:05;10.80;99.90
24452;DHT22;13350;50.984;5.822;2024-02-21T11:17:32;10.90;99.90
24452;DHT22;13350;50.984;5.822;2024-02-21T11:19:59;10.90;99.90
24452;DHT22;13350;50.984;5.822;2024-02-21T11:22:41;10.90;99.90
24452;DHT22;13350;50.984;5.822;2024-02-21T11:25:08;11.00;99.90
24452;DHT22;13350;50.984;5.822;2024-02-21T11:27:37;10.90;99.90
24452;DHT22;13350;50.984;5.822;2024-02-21T11:30:06;11.00;99.90
24452;DHT22;13350;50.984;5.822;2024-02-21T11:32:34;11.10;99.90
24452;DHT22;13350;50.984;5.822;2024-02-21T11:35:02;11.20;99.90
24452;DHT22;13350;50.984;5.822;2024-02-21T11:37:30;11.30;99.90
24452;DHT22;13350;50.984;5.822;2024-02-21T11:39:59;11.50;99.90
24452;DHT22;13350;50.984;5.822;2024-02-21T11:42:26;11.60;99.90
24452;DHT22;13350;50.984;5.822;2024-02-21T11:44:53;11.80;99.90
24452;DHT22;13350;50.984;5.822;2024-02-21T11:47:23;11.60;99.90
24452;DHT22;13350;50.984;5.822;2024-02-21T11:49:51;11.60;99.90
24452;DHT22;13350;50.984;5.822;2024-02-21T11:52:21;11.60;99.90
24452;DHT22;13350;50.984;5.822;2024-02-21T11:54:50;11.60;99.90
24452;DHT22;13350;50.984;5.822;2024-02-21T11:57:17;11.50;99.90
24452;DHT22;13350;50.984;5.822;2024-02-21T11:59:45;11.60;99.90
24452;DHT22;13350;50.984;5.822;2024-02-21T12:02:12;11.50;99.90
24452;DHT22;13350;50.984;5.822;2024-02-21T12:04:40;11.70;99.90
24452;DHT22;13350;50.984;5.822;2024-02-21T12:07:08;12.00;99.90
24452;DHT22;13350;50.984;5.822;2024-02-21T12:09:35;12.10;99.90
24452;DHT22;13350;50.984;5.822;2024-02-21T12:12:02;12.20;99.90
24452;DHT22;13350;50.984;5.822;2024-02-21T12:14:30;12.20;99.90
24452;DHT22;13350;50.984;5.822;2024-02-21T12:16:58;12.50;99.90
24452;DHT22;13350;50.984;5.822;2024-02-21T12:19:25;12.70;99.90
24452;DHT22;13350;50.984;5.822;2024-02-21T12:21:53;12.70;99.90
24452;DHT22;13350;50.984;5.822;2024-02-21T12:24:21;12.50;99.90
24452;DHT22;13350;50.984;5.822;2024-02-21T12:26:48;12.30;99.90
24452;DHT22;13350;50.984;5.822;2024-02-21T12:29:15;12.50;99.90
24452;DHT22;13350;50.984;5.822;2024-02-21T12:31:42;12.80;99.90
24452;DHT22;13350;50.984;5.822;2024-02-21T12:34:09;12.60;99.90
24452;DHT22;13350;50.984;5.822;2024-02-21T12:36:40;12.20;99.90
24452;DHT22;13350;50.984;5.822;2024-02-21T12:39:08;12.30;99.90
24452;DHT22;13350;50.984;5.822;2024-02-21T12:41:35;12.70;99.90
24452;DHT22;13350;50.984;5.822;2024-02-21T12:44:03;12.50;99.90
24452;DHT22;13350;50.984;5.822;2024-02-21T12:46:32;12.40;99.90
24452;DHT22;13350;50.984;5.822;2024-02-21T12:48:59;12.30;99.90
24452;DHT22;13350;50.984;5.822;2024-02-21T12:51:26;12.10;99.90
24452;DHT22;13350;50.984;5.822;2024-02-21T12:53:53;12.00;99.90
24452;DHT22;13350;50.984;5.822;2024-02-21T12:56:21;12.10;99.90
24452;DHT22;13350;50.984;5.822;2024-02-21T12:58:49;11.80;99.90
24452;DHT22;13350;50.984;5.822;2024-02-21T13:01:16;11.70;99.90
24452;DHT22;13350;50.984;5.822;2024-02-21T13:03:43;11.60;99.90
24452;DHT22;13350;50.984;5.822;2024-02-21T13:06:12;11.50;99.90
24452;DHT22;13350;50.984;5.822;2024-02-21T13:08:38;11.40;99.90
24452;DHT22;13350;50.984;5.822;2024-02-21T13:11:06;11.30;99.90
24452;DHT22;13350;50.984;5.822;2024-02-21T13:13:35;11.30;99.90
24452;DHT22;13350;50.984;5.822;2024-02-21T13:16:02;11.30;99.90
24452;DHT22;13350;50.984;5.822;2024-02-21T13:18:29;11.20;99.90
24452;DHT22;13350;50.984;5.822;2024-02-21T13:20:58;11.20;99.90
24452;DHT22;13350;50.984;5.822;2024-02-21T13:23:24;11.20;99.90
24452;DHT22;13350;50.984;5.822;2024-02-21T13:25:51;11.20;99.90
24452;DHT22;13350;50.984;5.822;2024-02-21T13:28:18;11.20;99.90
24452;DHT22;13350;50.984;5.822;2024-02-21T13:30:47;11.20;99.90
24452;DHT22;13350;50.984;5.822;2024-02-21T13:33:14;11.20;99.90
24452;DHT22;13350;50.984;5.822;2024-02-21T13:35:41;11.30;99.90
24452;DHT22;13350;50.984;5.822;2024-02-21T13:38:08;11.40;99.90
24452;DHT22;13350;50.984;5.822;2024-02-21T13:40:35;11.40;99.90
24452;DHT22;13350;50.984;5.822;2024-02-21T13:43:02;11.40;99.90
24452;DHT22;13350;50.984;5.822;2024-02-21T13:45:29;11.40;99.90
24452;DHT22;13350;50.984;5.822;2024-02-21T13:47:58;11.50;99.90
24452;DHT22;13350;50.984;5.822;2024-02-21T13:50:29;11.50;99.90
24452;DHT22;13350;50.984;5.822;2024-02-21T13:52:56;11.50;99.90
24452;DHT22;13350;50.984;5.822;2024-02-21T13:55:23;11.60;99.90
24452;DHT22;13350;50.984;5.822;2024-02-21T13:57:51;11.50;99.90
24452;DHT22;13350;50.984;5.822;2024-02-21T14:00:18;11.50;99.90
24452;DHT22;13350;50.984;5.822;2024-02-21T14:02:46;11.50;99.90
24452;DHT22;13350;50.984;5.822;2024-02-21T14:05:14;11.40;99.90
24452;DHT22;13350;50.984;5.822;2024-02-21T14:07:41;11.50;99.90
24452;DHT22;13350;50.984;5.822;2024-02-21T14:10:08;11.50;99.90
24452;DHT22;13350;50.984;5.822;2024-02-21T14:12:36;11.40;99.90
24452;DHT22;13350;50.984;5.822;2024-02-21T14:15:04;11.50;99.90
24452;DHT22;13350;50.984;5.822;2024-02-21T14:17:31;11.50;99.90
24452;DHT22;13350;50.984;5.822;2024-02-21T14:19:58;11.50;99.90
24452;DHT22;13350;50.984;5.822;2024-02-21T14:22:27;11.50;99.90
24452;DHT22;13350;50.984;5.822;2024-02-21T14:24:54;11.50;99.90
24452;DHT22;13350;50.984;5.822;2024-02-21T14:27:22;11.40;99.90
24452;DHT22;13350;50.984;5.822;2024-02-21T14:29:49;11.40;99.90
24452;DHT22;13350;50.984;5.822;2024-02-21T14:32:16;11.40;99.90
24452;DHT22;13350;50.984;5.822;2024-02-21T14:34:42;11.40;99.90
24452;DHT22;13350;50.984;5.822;2024-02-21T14:37:09;11.40;99.90
24452;DHT22;13350;50.984;5.822;2024-02-21T14:39:38;11.40;99.90
24452;DHT22;13350;50.984;5.822;2024-02-21T14:42:05;11.40;99.90
24452;DHT22;13350;50.984;5.822;2024-02-21T14:44:35;11.30;99.90
24452;DHT22;13350;50.984;5.822;2024-02-21T14:47:02;11.30;99.90
24452;DHT22;13350;50.984;5.822;2024-02-21T14:49:29;11.30;99.90
24452;DHT22;13350;50.984;5.822;2024-02-21T14:51:56;11.30;99.90
24452;DHT22;13350;50.984;5.822;2024-02-21T14:54:23;11.20;99.90
24452;DHT22;13350;50.984;5.822;2024-02-21T14:56:52;11.20;99.90
24452;DHT22;13350;50.984;5.822;2024-02-21T14:59:19;11.20;99.90
24452;DHT22;13350;50.984;5.822;2024-02-21T15:01:46;11.10;99.90
24452;DHT22;13350;50.984;5.822;2024-02-21T15:04:14;11.10;99.90
24452;DHT22;13350;50.984;5.822;2024-02-21T15:06:41;10.90;99.90
24452;DHT22;13350;50.984;5.822;2024-02-21T15:09:10;10.70;99.90
24452;DHT22;13350;50.984;5.822;2024-02-21T15:11:37;10.60;99.90
24452;DHT22;13350;50.984;5.822;2024-02-21T15:14:06;10.50;99.90
24452;DHT22;13350;50.984;5.822;2024-02-21T15:16:33;10.50;99.90
24452;DHT22;13350;50.984;5.822;2024-02-21T15:19:00;10.40;99.90
24452;DHT22;13350;50.984;5.822;2024-02-21T15:21:28;10.30;99.90
24452;DHT22;13350;50.984;5.822;2024-02-21T15:23:56;10.30;99.90
24452;DHT22;13350;50.984;5.822;2024-02-21T15:26:23;10.10;99.90
24452;DHT22;13350;50.984;5.822;2024-02-21T15:28:50;9.90;99.90
24452;DHT22;13350;50.984;5.822;2024-02-21T15:31:22;9.80;99.90
24452;DHT22;13350;50.984;5.822;2024-02-21T15:33:49;9.80;99.90
24452;DHT22;13350;50.984;5.822;2024-02-21T15:36:16;9.80;99.90
24452;DHT22;13350;50.984;5.822;2024-02-21T15:38:43;9.70;99.90
24452;DHT22;13350;50.984;5.822;2024-02-21T15:41:13;9.60;99.90
24452;DHT22;13350;50.984;5.822;2024-02-21T15:43:40;9.60;99.90